createdAt,value
2024-02-16T00:01:23.818Z,11.42
2024-02-16T00:03:51.788Z,11.40
2024-02-16T00:06:19.574Z,11.37
2024-02-16T00:08:48.175Z,11.36
2024-02-16T00:11:17.325Z,11.34
2024-02-16T00:13:45.210Z,11.31
2024-02-16T00:16:13.024Z,11.31
2024-02-16T00:18:40.943Z,11.28
2024-02-16T00:21:08.736Z,11.25
2024-02-16T00:23:36.734Z,11.24
2024-02-16T00:26:08.343Z,11.24
2024-02-16T00:28:38.938Z,11.23
2024-02-16T00:31:07.694Z,11.21
2024-02-16T00:33:35.837Z,11.18
2024-02-16T00:36:03.878Z,11.14
2024-02-16T00:38:31.610Z,11.13
2024-02-16T00:40:59.729Z,11.08
2024-02-16T00:43:27.489Z,11.06
2024-02-16T00:45:57.102Z,11.05
2024-02-16T00:48:25.325Z,11.03
2024-02-16T00:50:53.286Z,11.02
2024-02-16T00:53:21.333Z,11.04
2024-02-16T00:55:49.113Z,11.02
2024-02-16T00:58:16.938Z,11.04
2024-02-16T01:00:45.640Z,11.04
2024-02-16T01:03:15.182Z,11.04
2024-02-16T01:05:42.988Z,11.03
2024-02-16T01:08:10.725Z,11.05
2024-02-16T01:10:38.410Z,11.04
2024-02-16T01:13:06.493Z,11.05
2024-02-16T01:15:34.305Z,11.04
2024-02-16T01:18:02.388Z,11.03
2024-02-16T01:20:32.654Z,11.04
2024-02-16T01:23:00.479Z,11.03
2024-02-16T01:25:28.202Z,11.05
2024-02-16T01:27:55.972Z,11.03
2024-02-16T01:30:23.874Z,11.03
2024-02-16T01:32:51.753Z,11.02
2024-02-16T01:35:19.563Z,11.04
2024-02-16T01:37:48.666Z,11.02
2024-02-16T01:40:18.278Z,11.03
2024-02-16T01:42:46.369Z,11.04
2024-02-16T01:45:14.427Z,11.02
2024-02-16T01:47:45.243Z,11.01
2024-02-16T01:50:13.125Z,11.01
2024-02-16T01:52:41.026Z,11.02
2024-02-16T01:55:11.266Z,11.01
2024-02-16T01:57:41.311Z,11.00
2024-02-16T02:00:09.696Z,11.00
2024-02-16T02:02:37.453Z,10.99
2024-02-16T02:05:07.154Z,10.97
2024-02-16T02:07:35.433Z,10.97
2024-02-16T02:10:03.349Z,10.95
2024-02-16T02:12:32.589Z,10.93
2024-02-16T02:15:00.369Z,10.91
2024-02-16T02:17:28.117Z,10.90
2024-02-16T02:19:55.957Z,10.89
2024-02-16T02:22:25.011Z,10.88
2024-02-16T02:24:52.631Z,10.88
2024-02-16T02:27:20.348Z,10.87
2024-02-16T02:29:48.183Z,10.86
2024-02-16T02:32:15.875Z,10.86
2024-02-16T02:34:44.411Z,10.85
2024-02-16T02:37:12.094Z,10.83
2024-02-16T02:39:41.179Z,10.81
2024-02-16T02:42:09.332Z,10.79
2024-02-16T02:44:37.448Z,10.77
2024-02-16T02:47:05.310Z,10.72
2024-02-16T02:49:34.142Z,10.67
2024-02-16T02:52:02.004Z,10.63
2024-02-16T02:54:29.688Z,10.57
2024-02-16T02:56:58.970Z,10.54
2024-02-16T02:59:26.739Z,10.49
2024-02-16T03:01:54.384Z,10.46
2024-02-16T03:04:22.159Z,10.46
2024-02-16T03:06:49.983Z,10.44
2024-02-16T03:09:18.175Z,10.46
2024-02-16T03:11:45.920Z,10.46
2024-02-16T03:14:14.986Z,10.46
2024-02-16T03:16:42.650Z,10.45
2024-02-16T03:19:10.948Z,10.48
2024-02-16T03:21:38.966Z,10.49
2024-02-16T03:24:07.551Z,10.51
2024-02-16T03:26:35.364Z,10.52
2024-02-16T03:29:03.052Z,10.55
2024-02-16T03:31:32.082Z,10.56
2024-02-16T03:34:00.022Z,10.56
2024-02-16T03:36:27.813Z,10.58
2024-02-16T03:38:55.531Z,10.59
2024-02-16T03:41:24.708Z,10.58
2024-02-16T03:43:54.484Z,10.55
2024-02-16T03:46:22.319Z,10.46
2024-02-16T03:48:51.659Z,10.37
2024-02-16T03:51:19.692Z,10.30
2024-02-16T03:53:48.455Z,10.22
2024-02-16T03:56:20.812Z,10.18
2024-02-16T03:58:48.688Z,10.13
2024-02-16T04:01:16.446Z,10.11
2024-02-16T04:03:44.255Z,10.06
2024-02-16T04:06:13.553Z,10.02
2024-02-16T04:08:41.452Z,9.99
2024-02-16T04:11:09.297Z,9.96
2024-02-16T04:13:36.967Z,9.98
2024-02-16T04:16:04.795Z,9.99
2024-02-16T04:18:32.557Z,10.02
2024-02-16T04:21:00.334Z,10.02
2024-02-16T04:23:29.329Z,10.02
2024-02-16T04:25:59.493Z,9.99
2024-02-16T04:28:26.258Z,9.97
2024-02-16T04:30:53.913Z,9.94
2024-02-16T04:33:21.710Z,9.91
2024-02-16T04:35:51.629Z,9.91
2024-02-16T04:38:19.602Z,9.91
2024-02-16T04:40:48.643Z,9.90
2024-02-16T04:43:17.575Z,9.90
2024-02-16T04:45:47.615Z,9.88
2024-02-16T04:48:15.508Z,9.83
2024-02-16T04:50:44.028Z,9.81
2024-02-16T04:53:11.745Z,9.79
2024-02-16T04:55:39.770Z,9.73
2024-02-16T04:58:10.737Z,9.74
2024-02-16T05:00:39.409Z,9.72
2024-02-16T05:03:07.757Z,9.72
2024-02-16T05:05:35.727Z,9.74
2024-02-16T05:08:03.576Z,9.77
2024-02-16T05:10:31.330Z,9.76
2024-02-16T05:13:00.921Z,9.79
2024-02-16T05:15:30.166Z,9.77
2024-02-16T05:17:58.838Z,9.77
2024-02-16T05:20:26.957Z,9.75
2024-02-16T05:22:54.704Z,9.79
2024-02-16T05:25:22.457Z,9.75
2024-02-16T05:27:50.133Z,9.75
2024-02-16T05:30:18.053Z,9.78
2024-02-16T05:32:47.357Z,9.77
2024-02-16T05:35:16.227Z,9.76
2024-02-16T05:37:48.603Z,9.75
2024-02-16T05:40:28.433Z,9.74
2024-02-16T05:42:58.936Z,9.74
2024-02-16T05:45:27.694Z,9.72
2024-02-16T05:47:56.996Z,9.72
2024-02-16T05:50:25.043Z,9.66
2024-02-16T05:52:53.155Z,9.65
2024-02-16T05:55:21.265Z,9.58
2024-02-16T05:57:49.283Z,9.56
2024-02-16T06:00:17.806Z,9.52
2024-02-16T06:02:45.773Z,9.50
2024-02-16T06:05:15.894Z,9.44
2024-02-16T06:07:43.783Z,9.42
2024-02-16T06:10:12.565Z,9.36
2024-02-16T06:12:41.486Z,9.30
2024-02-16T06:15:10.277Z,9.22
2024-02-16T06:17:38.688Z,9.22
2024-02-16T06:20:10.505Z,9.20
2024-02-16T06:22:39.856Z,9.20
2024-02-16T06:25:08.168Z,9.17
2024-02-16T06:27:36.102Z,9.16
2024-02-16T06:30:07.120Z,9.12
2024-02-16T06:32:35.002Z,9.11
2024-02-16T06:35:02.876Z,9.07
2024-02-16T06:37:30.652Z,9.09
2024-02-16T06:39:59.673Z,9.10
2024-02-16T06:42:27.396Z,9.08
2024-02-16T06:44:55.103Z,9.15
2024-02-16T06:47:24.588Z,9.17
2024-02-16T06:49:52.692Z,9.23
2024-02-16T06:52:20.402Z,9.32
2024-02-16T06:54:48.653Z,9.36
2024-02-16T06:57:17.829Z,9.43
2024-02-16T06:59:45.565Z,9.48
2024-02-16T07:02:14.308Z,9.49
2024-02-16T07:04:42.341Z,9.55
2024-02-16T07:07:10.396Z,9.59
2024-02-16T07:09:40.656Z,9.60
2024-02-16T07:12:09.558Z,9.62
2024-02-16T07:14:38.694Z,9.63
2024-02-16T07:17:10.535Z,9.65
2024-02-16T07:19:38.903Z,9.68
2024-02-16T07:22:07.843Z,9.69
2024-02-16T07:24:35.789Z,9.70
2024-02-16T07:27:03.838Z,9.71
2024-02-16T07:29:31.729Z,9.71
2024-02-16T07:32:00.873Z,9.71
2024-02-16T07:34:29.995Z,9.71
2024-02-16T07:36:58.170Z,9.67
2024-02-16T07:39:26.503Z,9.65
2024-02-16T07:41:54.490Z,9.66
2024-02-16T07:44:22.343Z,9.62
2024-02-16T07:46:51.826Z,9.63
2024-02-16T07:49:21.433Z,9.62
2024-02-16T07:51:49.727Z,9.65
2024-02-16T07:54:17.670Z,9.66
2024-02-16T07:56:45.494Z,9.67
2024-02-16T07:59:13.226Z,9.71
2024-02-16T08:01:41.636Z,9.75
2024-02-16T08:04:09.535Z,9.83
2024-02-16T08:06:38.897Z,9.91
2024-02-16T08:09:07.611Z,9.98
2024-02-16T08:11:35.576Z,10.06
2024-02-16T08:14:04.273Z,10.11
2024-02-16T08:16:32.150Z,10.19
2024-02-16T08:19:00.132Z,10.27
2024-02-16T08:21:28.227Z,10.36
2024-02-16T08:23:57.462Z,10.44
2024-02-16T08:26:25.262Z,10.52
2024-02-16T08:28:53.010Z,10.59
2024-02-16T08:31:20.963Z,10.67
2024-02-16T08:33:49.159Z,10.75
2024-02-16T08:36:17.407Z,10.81
2024-02-16T08:38:45.242Z,10.89
2024-02-16T08:41:14.576Z,10.98
2024-02-16T08:43:42.374Z,11.06
2024-02-16T08:46:11.264Z,11.16
2024-02-16T08:48:39.317Z,11.25
2024-02-16T08:51:07.706Z,11.33
2024-02-16T08:53:35.884Z,11.41
2024-02-16T08:56:03.658Z,11.50
2024-02-16T08:58:32.784Z,11.56
2024-02-16T09:01:00.658Z,11.65
2024-02-16T09:03:28.600Z,11.71
2024-02-16T09:05:56.491Z,11.76
2024-02-16T09:08:24.352Z,11.81
2024-02-16T09:10:52.533Z,11.84
2024-02-16T09:13:32.599Z,11.87
2024-02-16T09:16:04.352Z,11.90
2024-02-16T09:18:32.278Z,11.93
2024-02-16T09:21:00.712Z,11.97
2024-02-16T09:23:28.817Z,12.01
2024-02-16T09:25:56.620Z,12.05
2024-02-16T09:28:29.890Z,12.10
2024-02-16T09:30:58.610Z,12.19
2024-02-16T09:33:28.926Z,12.27
2024-02-16T09:35:56.972Z,12.35
2024-02-16T09:38:24.885Z,12.44
2024-02-16T09:40:53.248Z,12.51
2024-02-16T09:43:28.559Z,12.58
2024-02-16T09:45:57.739Z,12.67
2024-02-16T09:48:28.669Z,12.73
2024-02-16T09:50:57.848Z,12.86
2024-02-16T09:53:28.122Z,13.02
2024-02-16T09:55:55.993Z,13.20
2024-02-16T09:58:23.768Z,13.39
2024-02-16T10:00:52.730Z,13.52
2024-02-16T10:03:29.520Z,13.63
2024-02-16T10:06:07.906Z,13.70
2024-02-16T10:08:36.148Z,13.74
2024-02-16T10:11:04.934Z,13.78
2024-02-16T10:13:33.408Z,13.82
2024-02-16T10:16:10.006Z,13.85
2024-02-16T10:18:40.906Z,13.89
2024-02-16T10:21:10.492Z,13.91
2024-02-16T10:26:09.005Z,13.94
2024-02-16T10:28:37.112Z,13.97
2024-02-16T10:31:06.613Z,13.99
2024-02-16T10:33:35.164Z,14.03
2024-02-16T10:36:08.853Z,14.08
2024-02-16T10:38:37.836Z,14.11
2024-02-16T10:41:07.404Z,14.17
2024-02-16T10:43:35.171Z,14.24
2024-02-16T10:46:03.801Z,14.37
2024-02-16T10:48:31.748Z,14.52
2024-02-16T10:51:00.484Z,14.65
2024-02-16T10:53:32.430Z,14.80
2024-02-16T10:56:00.714Z,14.98
2024-02-16T10:58:30.360Z,15.13
2024-02-16T11:00:59.458Z,15.30
2024-02-16T11:03:29.454Z,15.46
2024-02-16T11:05:59.330Z,15.65
2024-02-16T11:08:29.040Z,15.96
2024-02-16T11:11:01.189Z,16.21
2024-02-16T11:13:30.193Z,16.35
2024-02-16T11:16:01.927Z,16.46
2024-02-16T11:18:29.992Z,16.55
2024-02-16T11:20:58.126Z,16.60
2024-02-16T11:23:31.696Z,16.64
2024-02-16T11:26:03.553Z,16.68
2024-02-16T11:28:33.983Z,16.74
2024-02-16T11:31:02.446Z,16.79
2024-02-16T11:33:30.583Z,16.82
2024-02-16T11:36:00.190Z,16.84
2024-02-16T11:38:28.577Z,16.80
2024-02-16T11:40:59.592Z,16.75
2024-02-16T11:43:28.314Z,16.67
2024-02-16T11:45:56.445Z,16.62
2024-02-16T11:48:24.993Z,16.60
2024-02-16T11:51:01.986Z,16.60
2024-02-16T11:53:30.152Z,16.68
2024-02-16T11:56:01.044Z,16.83
2024-02-16T11:58:30.045Z,16.99
2024-02-16T12:01:03.578Z,17.04
2024-02-16T12:03:32.328Z,17.19
2024-02-16T12:06:02.674Z,17.28
2024-02-16T12:08:35.492Z,17.31
2024-02-16T12:11:05.120Z,17.43
2024-02-16T12:13:32.978Z,17.57
2024-02-16T12:16:00.699Z,17.72
2024-02-16T12:18:30.455Z,17.88
2024-02-16T12:21:02.171Z,17.92
2024-02-16T12:23:31.985Z,17.95
2024-02-16T12:25:59.929Z,18.14
2024-02-16T12:28:30.583Z,18.31
2024-02-16T12:31:00.809Z,18.48
2024-02-16T12:33:30.508Z,18.59
2024-02-16T12:35:59.396Z,18.55
2024-02-16T12:38:27.117Z,18.48
2024-02-16T12:40:54.923Z,18.40
2024-02-16T12:43:22.668Z,18.30
2024-02-16T12:45:51.759Z,18.21
2024-02-16T12:48:19.630Z,18.09
2024-02-16T12:50:48.532Z,17.97
2024-02-16T12:53:16.551Z,17.89
2024-02-16T12:55:44.406Z,17.87
2024-02-16T12:58:12.339Z,17.83
2024-02-16T13:00:40.267Z,17.78
2024-02-16T13:03:09.503Z,17.71
2024-02-16T13:05:37.374Z,17.66
2024-02-16T13:08:05.995Z,17.60
2024-02-16T13:10:33.823Z,17.51
2024-02-16T13:13:01.574Z,17.44
2024-02-16T13:15:29.801Z,17.33
2024-02-16T13:17:57.905Z,17.25
2024-02-16T13:20:27.345Z,17.15
2024-02-16T13:22:55.201Z,17.00
2024-02-16T13:25:23.408Z,16.87
2024-02-16T13:27:51.258Z,16.76
2024-02-16T13:30:19.118Z,16.65
2024-02-16T13:32:47.778Z,16.54
2024-02-16T13:35:18.688Z,16.44
2024-02-16T13:37:50.502Z,16.39
2024-02-16T13:40:19.006Z,16.34
2024-02-16T13:42:47.120Z,16.27
2024-02-16T13:45:15.168Z,16.20
2024-02-16T13:47:43.015Z,16.12
2024-02-16T13:50:12.209Z,16.05
2024-02-16T13:52:40.117Z,15.96
2024-02-16T13:55:10.066Z,15.88
2024-02-16T13:57:40.327Z,15.82
2024-02-16T14:00:09.775Z,15.76
2024-02-16T14:02:37.546Z,15.68
2024-02-16T14:05:06.423Z,15.63
2024-02-16T14:07:40.500Z,15.57
2024-02-16T14:10:15.481Z,15.50
2024-02-16T14:12:43.375Z,15.44
2024-02-16T14:15:16.489Z,15.39
2024-02-16T14:17:45.127Z,15.33
2024-02-16T14:20:16.769Z,15.31
2024-02-16T14:22:44.644Z,15.27
2024-02-16T14:25:14.531Z,15.19
2024-02-16T14:27:44.157Z,15.10
2024-02-16T14:30:13.186Z,15.04
2024-02-16T14:32:42.353Z,14.97
2024-02-16T14:35:10.668Z,14.91
2024-02-16T14:37:39.741Z,14.85
2024-02-16T14:40:11.265Z,14.79
2024-02-16T14:42:40.574Z,14.73
2024-02-16T14:45:20.690Z,14.67
2024-02-16T14:47:49.765Z,14.60
2024-02-16T14:50:18.153Z,14.58
2024-02-16T14:52:46.889Z,14.52
2024-02-16T14:55:15.499Z,14.47
2024-02-16T14:57:43.820Z,14.40
2024-02-16T15:00:14.909Z,14.35
2024-02-16T15:02:43.522Z,14.30
2024-02-16T15:05:11.701Z,14.21
2024-02-16T15:07:39.493Z,14.16
2024-02-16T15:10:08.267Z,14.12
2024-02-16T15:12:36.271Z,14.07
2024-02-16T15:15:04.361Z,14.02
2024-02-16T15:17:33.626Z,14.02
2024-02-16T15:20:04.245Z,13.98
2024-02-16T15:22:39.046Z,13.94
2024-02-16T15:25:13.537Z,13.92
2024-02-16T15:27:41.384Z,13.89
2024-02-16T15:30:10.150Z,13.85
2024-02-16T15:32:40.032Z,13.83
2024-02-16T15:35:08.642Z,13.83
2024-02-16T15:37:36.607Z,13.79
2024-02-16T15:40:04.672Z,13.78
2024-02-16T15:42:32.678Z,13.77
2024-02-16T15:45:01.232Z,13.77
2024-02-16T15:47:30.778Z,13.74
2024-02-16T15:49:59.834Z,13.74
2024-02-16T15:52:27.550Z,13.74
2024-02-16T15:54:55.277Z,13.73
2024-02-16T15:57:23.084Z,13.71
2024-02-16T15:59:50.863Z,13.71
2024-02-16T16:02:18.764Z,13.70
2024-02-16T16:04:46.893Z,13.69
2024-02-16T16:07:16.211Z,13.68
2024-02-16T16:09:44.112Z,13.65
2024-02-16T16:12:12.030Z,13.64
2024-02-16T16:14:39.745Z,13.63
2024-02-16T16:17:07.503Z,13.61
2024-02-16T16:19:35.488Z,13.60
2024-02-16T16:22:03.504Z,13.59
2024-02-16T16:24:32.764Z,13.56
2024-02-16T16:27:00.497Z,13.56
2024-02-16T16:29:28.878Z,13.53
2024-02-16T16:31:59.769Z,13.51
2024-02-16T16:34:30.308Z,13.51
2024-02-16T16:36:58.477Z,13.48
2024-02-16T16:39:26.691Z,13.46
2024-02-16T16:41:56.326Z,13.43
2024-02-16T16:44:26.261Z,13.40
2024-02-16T16:46:54.050Z,13.39
2024-02-16T16:49:21.874Z,13.35
2024-02-16T16:51:52.262Z,13.34
2024-02-16T16:54:21.563Z,13.34
2024-02-16T16:56:49.457Z,13.33
2024-02-16T16:59:18.633Z,13.29
2024-02-16T17:01:46.988Z,13.28
2024-02-16T17:04:14.820Z,13.24
2024-02-16T17:06:42.621Z,13.23
2024-02-16T17:09:11.211Z,13.22
2024-02-16T17:11:40.274Z,13.20
2024-02-16T17:14:08.985Z,13.19
2024-02-16T17:16:38.220Z,13.16
2024-02-16T17:19:06.002Z,13.13
2024-02-16T17:21:34.344Z,13.12
2024-02-16T17:24:02.425Z,13.10
2024-02-16T17:26:30.177Z,13.08
2024-02-16T17:28:58.127Z,13.07
2024-02-16T17:31:25.907Z,13.04
2024-02-16T17:33:55.286Z,13.02
2024-02-16T17:36:23.203Z,13.02
2024-02-16T17:38:51.092Z,12.98
2024-02-16T17:41:23.661Z,12.96
2024-02-16T17:43:51.423Z,12.94
2024-02-16T17:46:19.193Z,12.92
2024-02-16T17:48:47.101Z,12.92
2024-02-16T17:51:16.503Z,12.89
2024-02-16T17:53:44.270Z,12.86
2024-02-16T17:56:12.028Z,12.83
2024-02-16T17:58:39.787Z,12.80
2024-02-16T18:01:07.756Z,12.75
2024-02-16T18:03:35.599Z,12.74
2024-02-16T18:06:04.035Z,12.70
2024-02-16T18:08:33.227Z,12.67
2024-02-16T18:11:00.992Z,12.66
2024-02-16T18:13:28.766Z,12.61
2024-02-16T18:15:57.099Z,12.60
2024-02-16T18:18:27.949Z,12.57
2024-02-16T18:20:55.945Z,12.55
2024-02-16T18:23:23.748Z,12.53
2024-02-16T18:25:52.881Z,12.51
2024-02-16T18:28:26.197Z,12.48
2024-02-16T18:30:57.932Z,12.44
2024-02-16T18:33:25.853Z,12.44
2024-02-16T18:35:53.622Z,12.42
2024-02-16T18:38:21.568Z,12.40
2024-02-16T18:40:49.575Z,12.36
2024-02-16T18:43:18.865Z,12.34
2024-02-16T18:45:46.981Z,12.31
2024-02-16T18:48:15.457Z,12.28
2024-02-16T18:50:43.677Z,12.27
2024-02-16T18:53:11.518Z,12.25
2024-02-16T18:55:45.762Z,12.22
2024-02-16T18:58:14.080Z,12.20
2024-02-16T19:00:43.582Z,12.18
2024-02-16T19:03:11.404Z,12.14
2024-02-16T19:05:39.231Z,12.14
2024-02-16T19:08:09.855Z,12.10
2024-02-16T19:10:41.012Z,12.10
2024-02-16T19:13:08.894Z,12.07
2024-02-16T19:15:36.737Z,12.05
2024-02-16T19:18:08.932Z,12.04
2024-02-16T19:20:37.128Z,12.01
2024-02-16T19:23:05.254Z,12.01
2024-02-16T19:25:33.054Z,12.00
2024-02-16T19:28:01.024Z,11.98
2024-02-16T19:30:28.812Z,11.97
2024-02-16T19:32:56.638Z,11.95
2024-02-16T19:35:25.834Z,11.94
2024-02-16T19:37:53.655Z,11.94
2024-02-16T19:40:21.505Z,11.93
2024-02-16T19:42:49.313Z,11.91
2024-02-16T19:45:25.689Z,11.90
2024-02-16T19:47:57.121Z,11.88
2024-02-16T19:50:26.509Z,11.87
2024-02-16T19:52:55.040Z,11.87
2024-02-16T19:55:22.826Z,11.87
2024-02-16T19:57:51.403Z,11.87
2024-02-16T20:00:21.632Z,11.86
2024-02-16T20:02:49.633Z,11.84
2024-02-16T20:05:19.535Z,11.84
2024-02-16T20:07:48.942Z,11.84
2024-02-16T20:10:17.359Z,11.82
2024-02-16T20:12:45.286Z,11.82
2024-02-16T20:15:13.553Z,11.82
2024-02-16T20:17:41.505Z,11.82
2024-02-16T20:20:10.401Z,11.82
2024-02-16T20:22:38.209Z,11.82
2024-02-16T20:25:08.657Z,11.80
2024-02-16T20:27:37.449Z,11.80
2024-02-16T20:30:05.983Z,11.81
2024-02-16T20:32:33.795Z,11.81
2024-02-16T20:35:05.440Z,11.82
2024-02-16T20:37:33.798Z,11.79
2024-02-16T20:40:01.663Z,11.77
2024-02-16T20:42:31.239Z,11.77
2024-02-16T20:44:59.219Z,11.78
2024-02-16T20:47:28.324Z,11.77
2024-02-16T20:49:56.708Z,11.77
2024-02-16T20:52:25.195Z,11.76
2024-02-16T20:54:53.096Z,11.75
2024-02-16T20:57:20.853Z,11.76
2024-02-16T20:59:49.993Z,11.74
2024-02-16T21:02:20.389Z,11.74
2024-02-16T21:04:48.817Z,11.73
2024-02-16T21:07:16.916Z,11.72
2024-02-16T21:09:44.817Z,11.73
2024-02-16T21:12:12.536Z,11.73
2024-02-16T21:14:41.120Z,11.73
2024-02-16T21:17:10.630Z,11.74
2024-02-16T21:19:38.461Z,11.72
2024-02-16T21:22:06.978Z,11.72
2024-02-16T21:24:34.887Z,11.71
2024-02-16T21:27:02.880Z,11.73
2024-02-16T21:29:30.749Z,11.71
2024-02-16T21:31:58.841Z,11.73
2024-02-16T21:34:28.006Z,11.74
2024-02-16T21:36:58.714Z,11.76
2024-02-16T21:39:26.782Z,11.77
2024-02-16T21:41:54.563Z,11.79
2024-02-16T21:44:22.493Z,11.80
2024-02-16T21:46:50.185Z,11.80
2024-02-16T21:49:18.298Z,11.80
2024-02-16T21:51:47.487Z,11.81
2024-02-16T21:54:15.338Z,11.83
2024-02-16T21:56:43.124Z,11.85
2024-02-16T21:59:10.837Z,11.84
2024-02-16T22:01:38.620Z,11.84
2024-02-16T22:04:06.448Z,11.83
2024-02-16T22:06:34.694Z,11.82
2024-02-16T22:09:06.066Z,11.83
2024-02-16T22:11:33.941Z,11.84
2024-02-16T22:14:01.724Z,11.83
2024-02-16T22:16:29.769Z,11.83
2024-02-16T22:18:57.678Z,11.82
2024-02-16T22:21:30.803Z,11.80
2024-02-16T22:24:07.671Z,11.78
2024-02-16T22:26:36.320Z,11.78
2024-02-16T22:29:06.373Z,11.80
2024-02-16T22:31:39.599Z,11.81
2024-02-16T22:34:11.008Z,11.83
2024-02-16T22:36:40.866Z,11.86
2024-02-16T22:39:10.365Z,11.87
2024-02-16T22:41:38.187Z,11.83
2024-02-16T22:44:06.133Z,11.78
2024-02-16T22:46:34.118Z,11.71
2024-02-16T22:49:01.984Z,11.67
2024-02-16T22:51:36.593Z,11.62
2024-02-16T22:54:07.952Z,11.57
2024-02-16T22:56:37.201Z,11.56
2024-02-16T22:59:04.884Z,11.54
2024-02-16T23:01:32.629Z,11.50
2024-02-16T23:04:00.515Z,11.47
2024-02-16T23:06:28.346Z,11.42
2024-02-16T23:08:56.686Z,11.36
2024-02-16T23:11:24.453Z,11.32
2024-02-16T23:13:52.501Z,11.33
2024-02-16T23:16:21.683Z,11.31
2024-02-16T23:18:49.593Z,11.26
2024-02-16T23:21:17.436Z,11.26
2024-02-16T23:23:45.190Z,11.23
2024-02-16T23:26:12.934Z,11.22
2024-02-16T23:28:43.304Z,11.22
2024-02-16T23:31:13.151Z,11.24
2024-02-16T23:33:41.064Z,11.24
2024-02-16T23:36:09.478Z,11.25
2024-02-16T23:38:37.276Z,11.25
2024-02-16T23:41:05.101Z,11.27
2024-02-16T23:43:32.814Z,11.27
2024-02-16T23:46:02.466Z,11.27
2024-02-16T23:48:31.722Z,11.24
2024-02-16T23:50:59.675Z,11.22
2024-02-16T23:53:27.628Z,11.24
2024-02-16T23:55:57.007Z,11.24
2024-02-16T23:58:25.765Z,11.27
